sensor_id;sensor_type;location;lat;lon;timestamp;temperature;humidity
3262;DHT22;1643;47.746;9.000;2023-05-23T00:00:37;18.40;99.90
3262;DHT22;1643;47.746;9.000;2023-05-23T00:03:02;18.40;99.90
3262;DHT22;1643;47.746;9.000;2023-05-23T00:05:28;18.40;99.90
3262;DHT22;1643;47.746;9.000;2023-05-23T00:07:54;18.30;99.90
3262;DHT22;1643;47.746;9.000;2023-05-23T00:10:20;18.20;99.90
3262;DHT22;1643;47.746;9.000;2023-05-23T00:12:46;18.20;99.90
3262;DHT22;1643;47.746;9.000;2023-05-23T00:15:12;18.30;99.90
3262;DHT22;1643;47.746;9.000;2023-05-23T00:17:38;18.30;99.90
3262;DHT22;1643;47.746;9.000;2023-05-23T00:20:05;18.20;99.90
3262;DHT22;1643;47.746;9.000;2023-05-23T00:22:34;18.20;99.90
3262;DHT22;1643;47.746;9.000;2023-05-23T00:25:01;18.10;99.90
3262;DHT22;1643;47.746;9.000;2023-05-23T00:27:26;18.10;99.90
3262;DHT22;1643;47.746;9.000;2023-05-23T00:29:52;18.10;99.90
3262;DHT22;1643;47.746;9.000;2023-05-23T00:32:17;18.10;99.90
3262;DHT22;1643;47.746;9.000;2023-05-23T00:34:43;18.10;99.90
3262;DHT22;1643;47.746;9.000;2023-05-23T00:37:10;18.10;99.90
3262;DHT22;1643;47.746;9.000;2023-05-23T00:39:36;18.10;99.90
3262;DHT22;1643;47.746;9.000;2023-05-23T00:42:03;18.10;99.90
3262;DHT22;1643;47.746;9.000;2023-05-23T00:44:30;18.10;99.90
3262;DHT22;1643;47.746;9.000;2023-05-23T00:46:56;18.10;99.90
3262;DHT22;1643;47.746;9.000;2023-05-23T00:49:22;18.00;99.90
3262;DHT22;1643;47.746;9.000;2023-05-23T00:51:49;18.10;99.90
3262;DHT22;1643;47.746;9.000;2023-05-23T00:54:17;18.10;99.90
3262;DHT22;1643;47.746;9.000;2023-05-23T00:56:45;18.10;99.90
3262;DHT22;1643;47.746;9.000;2023-05-23T00:59:11;18.00;99.90
3262;DHT22;1643;47.746;9.000;2023-05-23T01:01:38;18.00;99.90
3262;DHT22;1643;47.746;9.000;2023-05-23T01:04:04;18.00;99.90
3262;DHT22;1643;47.746;9.000;2023-05-23T01:06:31;17.90;99.90
3262;DHT22;1643;47.746;9.000;2023-05-23T01:08:58;17.90;99.90
3262;DHT22;1643;47.746;9.000;2023-05-23T01:14:23;17.70;99.90
3262;DHT22;1643;47.746;9.000;2023-05-23T01:16:57;17.70;99.90
3262;DHT22;1643;47.746;9.000;2023-05-23T01:19:54;17.70;99.90
3262;DHT22;1643;47.746;9.000;2023-05-23T01:28:07;17.70;99.90
3262;DHT22;1643;47.746;9.000;2023-05-23T01:30:38;17.70;99.90
3262;DHT22;1643;47.746;9.000;2023-05-23T01:33:06;17.70;99.90
3262;DHT22;1643;47.746;9.000;2023-05-23T01:35:32;17.70;99.90
3262;DHT22;1643;47.746;9.000;2023-05-23T01:37:59;17.70;99.90
3262;DHT22;1643;47.746;9.000;2023-05-23T01:40:25;17.70;99.90
3262;DHT22;1643;47.746;9.000;2023-05-23T01:42:52;17.70;99.90
3262;DHT22;1643;47.746;9.000;2023-05-23T01:45:20;17.70;99.90
3262;DHT22;1643;47.746;9.000;2023-05-23T01:47:48;17.70;99.90
3262;DHT22;1643;47.746;9.000;2023-05-23T01:50:16;17.70;99.90
3262;DHT22;1643;47.746;9.000;2023-05-23T01:52:42;17.60;99.90
3262;DHT22;1643;47.746;9.000;2023-05-23T01:55:08;17.50;99.90
3262;DHT22;1643;47.746;9.000;2023-05-23T01:57:35;17.50;99.90
3262;DHT22;1643;47.746;9.000;2023-05-23T02:00:05;17.50;99.90
3262;DHT22;1643;47.746;9.000;2023-05-23T02:02:34;17.50;99.90
3262;DHT22;1643;47.746;9.000;2023-05-23T02:05:00;17.40;99.90
3262;DHT22;1643;47.746;9.000;2023-05-23T02:07:25;17.40;99.90
3262;DHT22;1643;47.746;9.000;2023-05-23T02:09:51;17.40;99.90
3262;DHT22;1643;47.746;9.000;2023-05-23T02:12:16;17.30;99.90
3262;DHT22;1643;47.746;9.000;2023-05-23T02:14:42;17.30;99.90
3262;DHT22;1643;47.746;9.000;2023-05-23T02:17:08;17.30;99.90
3262;DHT22;1643;47.746;9.000;2023-05-23T02:19:36;17.30;99.90
3262;DHT22;1643;47.746;9.000;2023-05-23T02:22:02;17.30;99.90
3262;DHT22;1643;47.746;9.000;2023-05-23T02:24:28;17.30;99.90
3262;DHT22;1643;47.746;9.000;2023-05-23T02:26:54;17.30;99.90
3262;DHT22;1643;47.746;9.000;2023-05-23T02:29:19;17.30;99.90
3262;DHT22;1643;47.746;9.000;2023-05-23T02:31:45;17.30;99.90
3262;DHT22;1643;47.746;9.000;2023-05-23T02:34:10;17.30;99.90
3262;DHT22;1643;47.746;9.000;2023-05-23T02:36:36;17.30;99.90
3262;DHT22;1643;47.746;9.000;2023-05-23T02:39:02;17.30;99.90
3262;DHT22;1643;47.746;9.000;2023-05-23T02:41:29;17.20;99.90
3262;DHT22;1643;47.746;9.000;2023-05-23T02:43:54;17.10;99.90
3262;DHT22;1643;47.746;9.000;2023-05-23T02:46:20;17.10;99.90
3262;DHT22;1643;47.746;9.000;2023-05-23T02:48:46;17.10;99.90
3262;DHT22;1643;47.746;9.000;2023-05-23T02:51:11;17.00;99.90
3262;DHT22;1643;47.746;9.000;2023-05-23T02:53:40;17.00;99.90
3262;DHT22;1643;47.746;9.000;2023-05-23T02:56:06;17.00;99.90
3262;DHT22;1643;47.746;9.000;2023-05-23T02:58:33;17.00;99.90
3262;DHT22;1643;47.746;9.000;2023-05-23T03:01:03;17.00;99.90
3262;DHT22;1643;47.746;9.000;2023-05-23T03:03:29;17.00;99.90
3262;DHT22;1643;47.746;9.000;2023-05-23T03:05:56;17.00;99.90
3262;DHT22;1643;47.746;9.000;2023-05-23T03:08:22;17.00;99.90
3262;DHT22;1643;47.746;9.000;2023-05-23T03:10:48;17.00;99.90
3262;DHT22;1643;47.746;9.000;2023-05-23T03:13:13;17.00;99.90
3262;DHT22;1643;47.746;9.000;2023-05-23T03:15:39;16.90;99.90
3262;DHT22;1643;47.746;9.000;2023-05-23T03:18:05;17.00;99.90
3262;DHT22;1643;47.746;9.000;2023-05-23T03:20:30;16.90;99.90
3262;DHT22;1643;47.746;9.000;2023-05-23T03:22:56;16.80;99.90
3262;DHT22;1643;47.746;9.000;2023-05-23T03:25:22;16.80;99.90
3262;DHT22;1643;47.746;9.000;2023-05-23T03:27:47;16.80;99.90
3262;DHT22;1643;47.746;9.000;2023-05-23T03:30:13;16.80;99.90
3262;DHT22;1643;47.746;9.000;2023-05-23T03:32:39;16.90;99.90
3262;DHT22;1643;47.746;9.000;2023-05-23T03:35:05;16.80;99.90
3262;DHT22;1643;47.746;9.000;2023-05-23T03:37:30;16.90;99.90
3262;DHT22;1643;47.746;9.000;2023-05-23T03:39:56;16.80;99.90
3262;DHT22;1643;47.746;9.000;2023-05-23T03:42:21;16.80;99.90
3262;DHT22;1643;47.746;9.000;2023-05-23T03:44:47;16.90;99.90
3262;DHT22;1643;47.746;9.000;2023-05-23T03:47:13;16.90;99.90
3262;DHT22;1643;47.746;9.000;2023-05-23T03:49:38;16.90;99.90
3262;DHT22;1643;47.746;9.000;2023-05-23T03:52:04;16.90;99.90
3262;DHT22;1643;47.746;9.000;2023-05-23T03:54:29;16.90;99.90
3262;DHT22;1643;47.746;9.000;2023-05-23T03:56:55;16.90;99.90
3262;DHT22;1643;47.746;9.000;2023-05-23T03:59:21;16.90;99.90
3262;DHT22;1643;47.746;9.000;2023-05-23T04:01:46;16.90;99.90
3262;DHT22;1643;47.746;9.000;2023-05-23T04:04:12;16.90;99.90
3262;DHT22;1643;47.746;9.000;2023-05-23T04:06:38;17.00;99.90
3262;DHT22;1643;47.746;9.000;2023-05-23T04:09:03;17.00;99.90
3262;DHT22;1643;47.746;9.000;2023-05-23T04:11:30;17.10;99.90
3262;DHT22;1643;47.746;9.000;2023-05-23T04:13:56;17.10;99.90
3262;DHT22;1643;47.746;9.000;2023-05-23T04:16:23;17.10;99.90
3262;DHT22;1643;47.746;9.000;2023-05-23T04:18:49;17.10;99.90
3262;DHT22;1643;47.746;9.000;2023-05-23T04:21:14;17.10;99.90
3262;DHT22;1643;47.746;9.000;2023-05-23T04:23:40;17.10;99.90
3262;DHT22;1643;47.746;9.000;2023-05-23T04:26:06;17.10;99.90
3262;DHT22;1643;47.746;9.000;2023-05-23T04:28:33;17.10;99.90
3262;DHT22;1643;47.746;9.000;2023-05-23T04:30:58;17.10;99.90
3262;DHT22;1643;47.746;9.000;2023-05-23T04:33:24;17.10;99.90
3262;DHT22;1643;47.746;9.000;2023-05-23T04:35:50;17.10;99.90
3262;DHT22;1643;47.746;9.000;2023-05-23T04:38:16;17.20;99.90
3262;DHT22;1643;47.746;9.000;2023-05-23T04:40:41;17.20;99.90
3262;DHT22;1643;47.746;9.000;2023-05-23T04:43:07;17.20;99.90
3262;DHT22;1643;47.746;9.000;2023-05-23T04:45:34;17.20;99.90
3262;DHT22;1643;47.746;9.000;2023-05-23T04:48:01;17.10;99.90
3262;DHT22;1643;47.746;9.000;2023-05-23T04:50:28;17.20;99.90
3262;DHT22;1643;47.746;9.000;2023-05-23T04:52:57;17.20;99.90
3262;DHT22;1643;47.746;9.000;2023-05-23T04:55:22;17.30;99.90
3262;DHT22;1643;47.746;9.000;2023-05-23T04:57:48;17.30;99.90
3262;DHT22;1643;47.746;9.000;2023-05-23T05:00:14;17.30;99.90
3262;DHT22;1643;47.746;9.000;2023-05-23T05:02:40;17.30;99.90
3262;DHT22;1643;47.746;9.000;2023-05-23T05:05:06;17.30;99.90
3262;DHT22;1643;47.746;9.000;2023-05-23T05:07:32;17.30;99.90
3262;DHT22;1643;47.746;9.000;2023-05-23T05:10:00;17.40;99.90
3262;DHT22;1643;47.746;9.000;2023-05-23T05:12:25;17.40;99.90
3262;DHT22;1643;47.746;9.000;2023-05-23T05:14:51;17.40;99.90
3262;DHT22;1643;47.746;9.000;2023-05-23T05:17:17;17.50;99.90
3262;DHT22;1643;47.746;9.000;2023-05-23T05:19:44;17.60;99.90
3262;DHT22;1643;47.746;9.000;2023-05-23T05:22:10;17.60;99.90
3262;DHT22;1643;47.746;9.000;2023-05-23T05:24:36;17.60;99.90
3262;DHT22;1643;47.746;9.000;2023-05-23T05:27:02;17.60;99.90
3262;DHT22;1643;47.746;9.000;2023-05-23T05:29:28;17.60;99.90
3262;DHT22;1643;47.746;9.000;2023-05-23T05:31:53;17.70;99.90
3262;DHT22;1643;47.746;9.000;2023-05-23T05:34:19;17.70;99.90
3262;DHT22;1643;47.746;9.000;2023-05-23T05:36:45;17.70;99.90
3262;DHT22;1643;47.746;9.000;2023-05-23T05:39:13;17.70;99.90
3262;DHT22;1643;47.746;9.000;2023-05-23T05:41:38;17.70;99.90
3262;DHT22;1643;47.746;9.000;2023-05-23T05:44:08;17.60;99.90
3262;DHT22;1643;47.746;9.000;2023-05-23T05:46:34;17.60;99.90
3262;DHT22;1643;47.746;9.000;2023-05-23T05:48:59;17.70;99.90
3262;DHT22;1643;47.746;9.000;2023-05-23T05:51:25;17.80;99.90
3262;DHT22;1643;47.746;9.000;2023-05-23T05:53:51;17.80;99.90
3262;DHT22;1643;47.746;9.000;2023-05-23T05:56:16;17.90;99.90
3262;DHT22;1643;47.746;9.000;2023-05-23T05:58:42;17.90;99.90
3262;DHT22;1643;47.746;9.000;2023-05-23T06:01:07;18.00;99.90
3262;DHT22;1643;47.746;9.000;2023-05-23T06:03:34;18.00;99.90
3262;DHT22;1643;47.746;9.000;2023-05-23T06:05:59;18.00;99.90
3262;DHT22;1643;47.746;9.000;2023-05-23T06:08:25;18.00;99.90
3262;DHT22;1643;47.746;9.000;2023-05-23T06:10:51;18.00;99.90
3262;DHT22;1643;47.746;9.000;2023-05-23T06:13:16;18.00;99.90
3262;DHT22;1643;47.746;9.000;2023-05-23T06:15:42;18.00;99.90
3262;DHT22;1643;47.746;9.000;2023-05-23T06:18:08;17.90;99.90
3262;DHT22;1643;47.746;9.000;2023-05-23T06:20:33;18.00;99.90
3262;DHT22;1643;47.746;9.000;2023-05-23T06:22:59;18.00;99.90
3262;DHT22;1643;47.746;9.000;2023-05-23T06:25:26;18.00;99.90
3262;DHT22;1643;47.746;9.000;2023-05-23T06:27:51;17.90;99.90
3262;DHT22;1643;47.746;9.000;2023-05-23T06:30:17;17.90;99.90
3262;DHT22;1643;47.746;9.000;2023-05-23T06:32:43;17.90;99.90
3262;DHT22;1643;47.746;9.000;2023-05-23T06:35:08;17.90;99.90
3262;DHT22;1643;47.746;9.000;2023-05-23T06:37:34;18.00;99.90
3262;DHT22;1643;47.746;9.000;2023-05-23T06:40:00;18.00;99.90
3262;DHT22;1643;47.746;9.000;2023-05-23T06:42:26;18.00;99.90
3262;DHT22;1643;47.746;9.000;2023-05-23T06:44:51;18.10;99.90
3262;DHT22;1643;47.746;9.000;2023-05-23T06:47:17;18.10;99.90
3262;DHT22;1643;47.746;9.000;2023-05-23T06:49:43;18.10;99.90
3262;DHT22;1643;47.746;9.000;2023-05-23T06:52:10;18.20;99.90
3262;DHT22;1643;47.746;9.000;2023-05-23T06:54:35;18.20;99.90
3262;DHT22;1643;47.746;9.000;2023-05-23T06:57:01;18.40;99.90
3262;DHT22;1643;47.746;9.000;2023-05-23T06:59:26;18.40;99.90
3262;DHT22;1643;47.746;9.000;2023-05-23T07:01:52;18.40;99.90
3262;DHT22;1643;47.746;9.000;2023-05-23T07:04:18;18.50;99.90
3262;DHT22;1643;47.746;9.000;2023-05-23T07:06:43;18.40;99.90
3262;DHT22;1643;47.746;9.000;2023-05-23T07:09:09;18.40;99.90
3262;DHT22;1643;47.746;9.000;2023-05-23T07:11:36;18.40;99.90
3262;DHT22;1643;47.746;9.000;2023-05-23T07:14:03;18.40;99.90
3262;DHT22;1643;47.746;9.000;2023-05-23T07:16:30;18.50;99.90
3262;DHT22;1643;47.746;9.000;2023-05-23T07:18:55;18.50;99.90
3262;DHT22;1643;47.746;9.000;2023-05-23T07:21:21;18.40;99.90
3262;DHT22;1643;47.746;9.000;2023-05-23T07:23:47;18.50;99.90
3262;DHT22;1643;47.746;9.000;2023-05-23T07:26:12;18.60;99.90
3262;DHT22;1643;47.746;9.000;2023-05-23T07:28:38;18.70;99.90
3262;DHT22;1643;47.746;9.000;2023-05-23T07:31:03;18.80;99.90
3262;DHT22;1643;47.746;9.000;2023-05-23T07:33:29;18.90;99.90
3262;DHT22;1643;47.746;9.000;2023-05-23T07:35:55;19.10;99.90
3262;DHT22;1643;47.746;9.000;2023-05-23T07:38:20;19.20;99.90
3262;DHT22;1643;47.746;9.000;2023-05-23T07:40:46;19.30;99.90
3262;DHT22;1643;47.746;9.000;2023-05-23T07:43:12;19.40;99.90
3262;DHT22;1643;47.746;9.000;2023-05-23T07:45:37;19.40;99.90
3262;DHT22;1643;47.746;9.000;2023-05-23T07:48:03;19.30;99.90
3262;DHT22;1643;47.746;9.000;2023-05-23T07:50:28;19.30;99.90
3262;DHT22;1643;47.746;9.000;2023-05-23T07:52:54;19.40;99.90
3262;DHT22;1643;47.746;9.000;2023-05-23T07:55:20;19.30;99.90
3262;DHT22;1643;47.746;9.000;2023-05-23T07:57:45;19.40;99.90
3262;DHT22;1643;47.746;9.000;2023-05-23T08:00:11;19.40;99.90
3262;DHT22;1643;47.746;9.000;2023-05-23T08:02:37;19.30;99.90
3262;DHT22;1643;47.746;9.000;2023-05-23T08:05:03;19.20;99.90
3262;DHT22;1643;47.746;9.000;2023-05-23T08:07:28;19.20;99.90
3262;DHT22;1643;47.746;9.000;2023-05-23T08:09:54;19.20;99.90
3262;DHT22;1643;47.746;9.000;2023-05-23T08:12:19;19.20;99.90
3262;DHT22;1643;47.746;9.000;2023-05-23T08:14:45;19.30;99.90
3262;DHT22;1643;47.746;9.000;2023-05-23T08:17:11;19.40;99.90
3262;DHT22;1643;47.746;9.000;2023-05-23T08:19:37;19.40;99.90
3262;DHT22;1643;47.746;9.000;2023-05-23T08:22:03;19.50;99.90
3262;DHT22;1643;47.746;9.000;2023-05-23T08:24:29;19.50;99.90
3262;DHT22;1643;47.746;9.000;2023-05-23T08:26:56;19.60;99.90
3262;DHT22;1643;47.746;9.000;2023-05-23T08:29:21;19.60;99.90
3262;DHT22;1643;47.746;9.000;2023-05-23T08:31:47;19.70;99.90
3262;DHT22;1643;47.746;9.000;2023-05-23T08:34:13;19.70;99.90
3262;DHT22;1643;47.746;9.000;2023-05-23T08:36:39;19.70;99.90
3262;DHT22;1643;47.746;9.000;2023-05-23T08:39:06;19.90;99.90
3262;DHT22;1643;47.746;9.000;2023-05-23T08:41:33;19.90;99.90
3262;DHT22;1643;47.746;9.000;2023-05-23T08:43:59;19.90;99.90
3262;DHT22;1643;47.746;9.000;2023-05-23T08:46:25;20.00;99.90
3262;DHT22;1643;47.746;9.000;2023-05-23T08:48:53;20.00;99.90
3262;DHT22;1643;47.746;9.000;2023-05-23T08:51:24;20.00;99.90
3262;DHT22;1643;47.746;9.000;2023-05-23T08:53:50;19.90;99.90
3262;DHT22;1643;47.746;9.000;2023-05-23T08:56:18;19.90;99.90
3262;DHT22;1643;47.746;9.000;2023-05-23T08:58:45;20.00;99.90
3262;DHT22;1643;47.746;9.000;2023-05-23T09:01:12;20.00;99.90
3262;DHT22;1643;47.746;9.000;2023-05-23T09:03:39;20.00;99.90
3262;DHT22;1643;47.746;9.000;2023-05-23T09:06:08;20.00;99.90
3262;DHT22;1643;47.746;9.000;2023-05-23T09:08:34;20.00;99.90
3262;DHT22;1643;47.746;9.000;2023-05-23T09:11:04;20.00;99.90
3262;DHT22;1643;47.746;9.000;2023-05-23T09:13:31;20.20;99.90
3262;DHT22;1643;47.746;9.000;2023-05-23T09:18:26;20.40;99.90
3262;DHT22;1643;47.746;9.000;2023-05-23T09:20:52;20.50;99.90
3262;DHT22;1643;47.746;9.000;2023-05-23T09:23:18;20.50;99.90
3262;DHT22;1643;47.746;9.000;2023-05-23T09:25:48;20.40;99.90
3262;DHT22;1643;47.746;9.000;2023-05-23T09:28:13;20.30;99.90
3262;DHT22;1643;47.746;9.000;2023-05-23T09:30:39;20.20;99.90
3262;DHT22;1643;47.746;9.000;2023-05-23T09:33:05;20.10;99.90
3262;DHT22;1643;47.746;9.000;2023-05-23T09:35:31;20.10;99.90
3262;DHT22;1643;47.746;9.000;2023-05-23T09:37:57;20.10;99.90
3262;DHT22;1643;47.746;9.000;2023-05-23T09:40:30;20.10;99.90
3262;DHT22;1643;47.746;9.000;2023-05-23T09:43:03;20.10;99.90
3262;DHT22;1643;47.746;9.000;2023-05-23T09:45:32;20.10;99.90
3262;DHT22;1643;47.746;9.000;2023-05-23T09:47:58;20.20;99.90
3262;DHT22;1643;47.746;9.000;2023-05-23T09:50:30;20.20;99.90
3262;DHT22;1643;47.746;9.000;2023-05-23T09:52:58;20.20;99.90
3262;DHT22;1643;47.746;9.000;2023-05-23T09:55:24;20.30;99.90
3262;DHT22;1643;47.746;9.000;2023-05-23T09:57:52;20.40;99.90
3262;DHT22;1643;47.746;9.000;2023-05-23T10:00:22;20.40;99.90
3262;DHT22;1643;47.746;9.000;2023-05-23T10:03:09;20.70;99.90
3262;DHT22;1643;47.746;9.000;2023-05-23T10:05:45;20.80;99.90
3262;DHT22;1643;47.746;9.000;2023-05-23T10:13:40;21.00;99.90
3262;DHT22;1643;47.746;9.000;2023-05-23T10:18:43;21.20;99.90
3262;DHT22;1643;47.746;9.000;2023-05-23T10:21:11;21.20;99.90
3262;DHT22;1643;47.746;9.000;2023-05-23T10:23:41;21.40;99.90
3262;DHT22;1643;47.746;9.000;2023-05-23T10:26:07;21.50;99.90
3262;DHT22;1643;47.746;9.000;2023-05-23T10:28:33;21.60;99.90
3262;DHT22;1643;47.746;9.000;2023-05-23T10:30:59;21.60;99.90
3262;DHT22;1643;47.746;9.000;2023-05-23T10:33:34;21.50;99.90
3262;DHT22;1643;47.746;9.000;2023-05-23T10:36:07;21.70;99.90
3262;DHT22;1643;47.746;9.000;2023-05-23T10:38:45;21.80;99.90
3262;DHT22;1643;47.746;9.000;2023-05-23T10:41:28;22.00;99.90
3262;DHT22;1643;47.746;9.000;2023-05-23T10:46:49;22.20;99.90
3262;DHT22;1643;47.746;9.000;2023-05-23T10:49:36;22.30;99.90
3262;DHT22;1643;47.746;9.000;2023-05-23T10:52:02;22.50;99.90
3262;DHT22;1643;47.746;9.000;2023-05-23T10:54:34;22.50;99.90
3262;DHT22;1643;47.746;9.000;2023-05-23T10:57:04;22.60;99.90
3262;DHT22;1643;47.746;9.000;2023-05-23T10:59:30;22.50;99.90
3262;DHT22;1643;47.746;9.000;2023-05-23T11:01:56;22.50;99.90
3262;DHT22;1643;47.746;9.000;2023-05-23T11:04:26;22.60;99.90
3262;DHT22;1643;47.746;9.000;2023-05-23T11:06:55;22.50;99.90
3262;DHT22;1643;47.746;9.000;2023-05-23T11:09:21;22.40;99.90
3262;DHT22;1643;47.746;9.000;2023-05-23T11:17:28;22.20;99.90
3262;DHT22;1643;47.746;9.000;2023-05-23T11:20:04;22.20;99.90
3262;DHT22;1643;47.746;9.000;2023-05-23T11:22:34;22.10;99.90
3262;DHT22;1643;47.746;9.000;2023-05-23T11:25:05;21.90;99.90
3262;DHT22;1643;47.746;9.000;2023-05-23T11:27:33;21.70;99.90
3262;DHT22;1643;47.746;9.000;2023-05-23T11:30:10;21.70;99.90
3262;DHT22;1643;47.746;9.000;2023-05-23T11:32:40;21.60;99.90
3262;DHT22;1643;47.746;9.000;2023-05-23T11:35:08;21.60;99.90
3262;DHT22;1643;47.746;9.000;2023-05-23T11:37:34;21.60;99.90
3262;DHT22;1643;47.746;9.000;2023-05-23T11:40:33;21.60;99.90
3262;DHT22;1643;47.746;9.000;2023-05-23T11:43:01;21.60;99.90
3262;DHT22;1643;47.746;9.000;2023-05-23T11:45:28;21.40;99.90
3262;DHT22;1643;47.746;9.000;2023-05-23T11:47:54;21.30;99.90
3262;DHT22;1643;47.746;9.000;2023-05-23T11:50:20;21.10;99.90
3262;DHT22;1643;47.746;9.000;2023-05-23T11:52:46;21.00;99.90
3262;DHT22;1643;47.746;9.000;2023-05-23T11:55:19;20.80;99.90
3262;DHT22;1643;47.746;9.000;2023-05-23T11:57:46;20.60;99.90
3262;DHT22;1643;47.746;9.000;2023-05-23T12:00:12;20.50;99.90
3262;DHT22;1643;47.746;9.000;2023-05-23T12:02:42;20.40;99.90
3262;DHT22;1643;47.746;9.000;2023-05-23T12:05:09;20.40;99.90
3262;DHT22;1643;47.746;9.000;2023-05-23T12:07:38;20.40;99.90
3262;DHT22;1643;47.746;9.000;2023-05-23T12:10:04;20.40;99.90
3262;DHT22;1643;47.746;9.000;2023-05-23T12:12:31;20.30;99.90
3262;DHT22;1643;47.746;9.000;2023-05-23T12:14:57;20.30;99.90
3262;DHT22;1643;47.746;9.000;2023-05-23T12:17:23;20.20;99.90
3262;DHT22;1643;47.746;9.000;2023-05-23T12:19:49;20.00;99.90
3262;DHT22;1643;47.746;9.000;2023-05-23T12:22:20;20.00;99.90
3262;DHT22;1643;47.746;9.000;2023-05-23T12:24:46;20.00;99.90
3262;DHT22;1643;47.746;9.000;2023-05-23T12:27:12;20.20;99.90
3262;DHT22;1643;47.746;9.000;2023-05-23T12:29:38;20.20;99.90
3262;DHT22;1643;47.746;9.000;2023-05-23T12:32:05;20.30;99.90
3262;DHT22;1643;47.746;9.000;2023-05-23T12:34:31;20.20;99.90
3262;DHT22;1643;47.746;9.000;2023-05-23T12:36:58;20.10;99.90
3262;DHT22;1643;47.746;9.000;2023-05-23T12:39:28;19.90;99.90
3262;DHT22;1643;47.746;9.000;2023-05-23T12:42:07;19.80;99.90
3262;DHT22;1643;47.746;9.000;2023-05-23T12:44:33;19.50;99.90
3262;DHT22;1643;47.746;9.000;2023-05-23T12:46:59;19.30;99.90
3262;DHT22;1643;47.746;9.000;2023-05-23T12:49:24;19.30;99.90
3262;DHT22;1643;47.746;9.000;2023-05-23T12:51:50;19.50;99.90
3262;DHT22;1643;47.746;9.000;2023-05-23T12:54:16;19.70;99.90
3262;DHT22;1643;47.746;9.000;2023-05-23T12:56:42;19.80;99.90
3262;DHT22;1643;47.746;9.000;2023-05-23T12:59:07;19.90;99.90
3262;DHT22;1643;47.746;9.000;2023-05-23T13:01:34;19.90;99.90
3262;DHT22;1643;47.746;9.000;2023-05-23T13:04:00;20.00;99.90
3262;DHT22;1643;47.746;9.000;2023-05-23T13:06:27;20.00;99.90
3262;DHT22;1643;47.746;9.000;2023-05-23T13:08:52;20.00;99.90
3262;DHT22;1643;47.746;9.000;2023-05-23T13:11:20;19.90;99.90
3262;DHT22;1643;47.746;9.000;2023-05-23T13:13:47;19.90;99.90
3262;DHT22;1643;47.746;9.000;2023-05-23T13:16:13;19.80;99.90
3262;DHT22;1643;47.746;9.000;2023-05-23T13:18:38;19.80;99.90
3262;DHT22;1643;47.746;9.000;2023-05-23T13:21:04;19.70;99.90
3262;DHT22;1643;47.746;9.000;2023-05-23T13:23:30;19.70;99.90
3262;DHT22;1643;47.746;9.000;2023-05-23T13:25:56;19.70;99.90
3262;DHT22;1643;47.746;9.000;2023-05-23T13:28:22;19.70;99.90
3262;DHT22;1643;47.746;9.000;2023-05-23T13:30:49;19.80;99.90
3262;DHT22;1643;47.746;9.000;2023-05-23T13:33:15;19.90;99.90
3262;DHT22;1643;47.746;9.000;2023-05-23T13:35:40;19.90;99.90
3262;DHT22;1643;47.746;9.000;2023-05-23T13:38:06;20.00;99.90
3262;DHT22;1643;47.746;9.000;2023-05-23T13:40:32;20.10;99.90
3262;DHT22;1643;47.746;9.000;2023-05-23T13:42:58;20.10;99.90
3262;DHT22;1643;47.746;9.000;2023-05-23T13:45:23;20.30;99.90
3262;DHT22;1643;47.746;9.000;2023-05-23T13:47:49;20.50;99.90
3262;DHT22;1643;47.746;9.000;2023-05-23T13:50:15;20.70;99.90
3262;DHT22;1643;47.746;9.000;2023-05-23T13:52:41;20.90;99.90
3262;DHT22;1643;47.746;9.000;2023-05-23T13:55:07;21.10;99.90
3262;DHT22;1643;47.746;9.000;2023-05-23T13:57:33;21.30;99.90
3262;DHT22;1643;47.746;9.000;2023-05-23T13:59:59;21.40;99.90
3262;DHT22;1643;47.746;9.000;2023-05-23T14:02:24;21.50;99.90
3262;DHT22;1643;47.746;9.000;2023-05-23T14:04:51;21.70;99.90
3262;DHT22;1643;47.746;9.000;2023-05-23T14:07:17;21.60;99.90
3262;DHT22;1643;47.746;9.000;2023-05-23T14:09:43;21.60;99.90
3262;DHT22;1643;47.746;9.000;2023-05-23T14:12:09;21.80;99.90
3262;DHT22;1643;47.746;9.000;2023-05-23T14:14:35;21.70;99.90
3262;DHT22;1643;47.746;9.000;2023-05-23T14:17:01;21.60;99.90
3262;DHT22;1643;47.746;9.000;2023-05-23T14:19:27;21.60;99.90
3262;DHT22;1643;47.746;9.000;2023-05-23T14:21:53;21.50;99.90
3262;DHT22;1643;47.746;9.000;2023-05-23T14:24:18;21.30;99.90
3262;DHT22;1643;47.746;9.000;2023-05-23T14:26:44;21.10;99.90
3262;DHT22;1643;47.746;9.000;2023-05-23T14:29:11;21.20;99.90
3262;DHT22;1643;47.746;9.000;2023-05-23T14:31:36;21.30;99.90
3262;DHT22;1643;47.746;9.000;2023-05-23T14:34:02;21.30;99.90
3262;DHT22;1643;47.746;9.000;2023-05-23T14:36:28;21.20;99.90
3262;DHT22;1643;47.746;9.000;2023-05-23T14:38:53;21.20;99.90
3262;DHT22;1643;47.746;9.000;2023-05-23T14:41:19;21.20;99.90
3262;DHT22;1643;47.746;9.000;2023-05-23T14:43:45;21.10;99.90
3262;DHT22;1643;47.746;9.000;2023-05-23T14:46:11;20.90;99.90
3262;DHT22;1643;47.746;9.000;2023-05-23T14:48:38;20.80;99.90
3262;DHT22;1643;47.746;9.000;2023-05-23T14:51:03;20.70;99.90
3262;DHT22;1643;47.746;9.000;2023-05-23T14:53:30;20.70;99.90
3262;DHT22;1643;47.746;9.000;2023-05-23T14:55:55;20.70;99.90
3262;DHT22;1643;47.746;9.000;2023-05-23T14:58:22;20.70;99.90
3262;DHT22;1643;47.746;9.000;2023-05-23T15:00:48;20.80;99.90
3262;DHT22;1643;47.746;9.000;2023-05-23T15:03:14;20.60;99.90
3262;DHT22;1643;47.746;9.000;2023-05-23T15:05:40;20.50;99.90
3262;DHT22;1643;47.746;9.000;2023-05-23T15:08:05;20.40;99.90
3262;DHT22;1643;47.746;9.000;2023-05-23T15:10:31;20.50;99.90
3262;DHT22;1643;47.746;9.000;2023-05-23T15:12:57;20.50;99.90
3262;DHT22;1643;47.746;9.000;2023-05-23T15:15:23;20.60;99.90
3262;DHT22;1643;47.746;9.000;2023-05-23T15:17:49;20.50;99.90
3262;DHT22;1643;47.746;9.000;2023-05-23T15:20:16;20.60;99.90
3262;DHT22;1643;47.746;9.000;2023-05-23T15:22:42;20.70;99.90
3262;DHT22;1643;47.746;9.000;2023-05-23T15:25:08;20.60;99.90
3262;DHT22;1643;47.746;9.000;2023-05-23T15:27:34;20.70;99.90
3262;DHT22;1643;47.746;9.000;2023-05-23T15:30:00;20.80;99.90
3262;DHT22;1643;47.746;9.000;2023-05-23T15:32:26;20.70;99.90
3262;DHT22;1643;47.746;9.000;2023-05-23T15:34:51;20.80;99.90
3262;DHT22;1643;47.746;9.000;2023-05-23T15:37:17;20.70;99.90
3262;DHT22;1643;47.746;9.000;2023-05-23T15:39:43;20.70;99.90
3262;DHT22;1643;47.746;9.000;2023-05-23T15:42:09;20.60;99.90
3262;DHT22;1643;47.746;9.000;2023-05-23T15:44:34;20.70;99.90
3262;DHT22;1643;47.746;9.000;2023-05-23T15:47:00;20.80;99.90
3262;DHT22;1643;47.746;9.000;2023-05-23T15:49:26;21.00;99.90
3262;DHT22;1643;47.746;9.000;2023-05-23T15:51:51;21.40;99.90
3262;DHT22;1643;47.746;9.000;2023-05-23T15:54:18;21.50;99.90
3262;DHT22;1643;47.746;9.000;2023-05-23T15:56:44;21.60;99.90
3262;DHT22;1643;47.746;9.000;2023-05-23T15:59:09;21.70;99.90
3262;DHT22;1643;47.746;9.000;2023-05-23T16:01:35;21.50;99.90
3262;DHT22;1643;47.746;9.000;2023-05-23T16:04:01;21.40;99.90
3262;DHT22;1643;47.746;9.000;2023-05-23T16:06:28;21.30;99.90
3262;DHT22;1643;47.746;9.000;2023-05-23T16:08:54;21.30;99.90
3262;DHT22;1643;47.746;9.000;2023-05-23T16:11:20;21.40;99.90
3262;DHT22;1643;47.746;9.000;2023-05-23T16:13:46;21.40;99.90
3262;DHT22;1643;47.746;9.000;2023-05-23T16:16:12;21.40;99.90
3262;DHT22;1643;47.746;9.000;2023-05-23T16:18:38;21.70;99.90
3262;DHT22;1643;47.746;9.000;2023-05-23T16:21:03;21.90;99.90
3262;DHT22;1643;47.746;9.000;2023-05-23T16:23:30;22.00;99.90
3262;DHT22;1643;47.746;9.000;2023-05-23T16:25:55;22.00;99.90